Terminal Aerodrome Forecast
Issued by NWS

Home | Current Version | Previous Version | Text Only | Print | Product List | Glossary On
Versions: 1 2 3 4 5 6 7 8 9 10 11 12
000
FTUS46 KPDT 191100
TAFALW
TAF
KALW 191128Z 1912/2012 10006KT P6SM SCT250
     FM191800 24005KT P6SM FEW250
     FM192100 34005KT P6SM SKC
     FM200300 12005KT P6SM FEW250=

USA.gov is the U.S. government's official web portal to all federal, state and local government web resources and services.